This is the latest recevied weather packets stored in our database for station/object OE-11140. If no packets are shown the sender has not sent any weather packets the latest 10 day(s).
| Time | Temp. | Humidity | Pressure | Rain* | Wind** | Luminosity | Snow |
|---|---|---|---|---|---|---|---|
| 1787882716 | 19.44° C | 73% | 1012.3 hPa | 0 mm | - | 0 W/m² | - |
| 1787882113 | 20° C | 71% | 1012.1 hPa | 0 mm | - | 0 W/m² | - |
| 1787881289 | 20° C | 71% | 1012.2 hPa | 0 mm | - | 0 W/m² | - |
| 1787880916 | 20.56° C | 69% | 1012.1 hPa | 0 mm | - | 0 W/m² | - |
| 1787880316 | 20° C | 70% | 1012.1 hPa | 0 mm | - | 0 W/m² | - |
| 1787879488 | 20° C | 72% | 1012.1 hPa | 0 mm | - | 0 W/m² | - |
| 1787879115 | 20° C | 70% | 1012 hPa | 0 mm | - | 0 W/m² | - |
| 1787878516 | 20° C | 72% | 1012.1 hPa | 0 mm | - | 0 W/m² | - |
| 1787877688 | 20.56° C | 69% | 1012 hPa | 0 mm | - | 0 W/m² | - |
| 1787877316 | 20.56° C | 70% | 1012 hPa | 0 mm | - | 0 W/m² | - |
| 1787876716 | 20.56° C | 69% | 1012 hPa | 0 mm | - | 0 W/m² | - |
| 1787875888 | 20.56° C | 71% | 1012.1 hPa | 0 mm | - | 0 W/m² | - |
| 1787875515 | 20.56° C | 70% | 1011.9 hPa | 0 mm | - | 0 W/m² | - |
| 1787874916 | 20.56° C | 71% | 1012.1 hPa | 0 mm | - | 0 W/m² | - |
| 1787874088 | 20.56° C | 71% | 1012 hPa | 0 mm | - | 0 W/m² | - |
| 1787873716 | 20° C | 74% | 1012.3 hPa | 0 mm | - | 0 W/m² | - |
| 1787873115 | 20.56° C | 73% | 1012.2 hPa | 0 mm | - | 0 W/m² | - |
| 1787872516 | 20° C | 75% | 1012.3 hPa | 0 mm | - | 0 W/m² | - |
| 1787871915 | 20.56° C | 72% | 1012.4 hPa | 0 mm | - | 0 W/m² | - |
| 1787870489 | 20.56° C | 74% | 1012.7 hPa | 0 mm | - | 0 W/m² | - |
| 1787870116 | 20.56° C | 73% | 1012.6 hPa | 0 mm | - | 0 W/m² | - |
| 1787869516 | 20.56° C | 76% | 1012.9 hPa | 0 mm | - | 0 W/m² | - |
| 1787868689 | 20.56° C | 75% | 1013 hPa | 0 mm | - | 0 W/m² | - |
| 1787868315 | 20.56° C | 74% | 1013.1 hPa | 0 mm | - | 0 W/m² | - |
| 1787867716 | 20.56° C | 74% | 1013 hPa | 0 mm | - | 0 W/m² | - |
* Rain latest hour (hover to see other rain measurements)
** Current wind speed in m/s (hover to see current wind gust speed)